createdAt,value
2017-12-20T00:01:31.681Z,100659
2017-12-20T00:03:39.030Z,100650
2017-12-20T00:05:45.913Z,100649
2017-12-20T00:07:52.596Z,100652
2017-12-20T00:09:58.968Z,100658
2017-12-20T00:12:06.682Z,100656
2017-12-20T00:14:12.700Z,100651
2017-12-20T00:16:18.354Z,100652
2017-12-20T00:18:25.588Z,100650
2017-12-20T00:20:35.384Z,100650
2017-12-20T00:22:47.468Z,100648
2017-12-20T00:24:54.175Z,100647
2017-12-20T00:27:05.452Z,100653
2017-12-20T00:29:16.259Z,100651
2017-12-20T00:31:22.175Z,100653
2017-12-20T00:33:31.220Z,100653
2017-12-20T00:35:41.083Z,100658
2017-12-20T00:37:50.554Z,100652
2017-12-20T00:40:04.936Z,100655
2017-12-20T00:42:12.386Z,100655
2017-12-20T00:44:22.321Z,100660
2017-12-20T00:46:30.880Z,100661
2017-12-20T00:48:39.859Z,100664
2017-12-20T00:50:47.962Z,100661
2017-12-20T00:52:53.894Z,100665
2017-12-20T00:55:01.875Z,100665
2017-12-20T00:57:08.767Z,100667
2017-12-20T00:59:15.290Z,100665
2017-12-20T01:01:22.252Z,100660
2017-12-20T01:03:30.706Z,100655
2017-12-20T01:05:38.548Z,100654
2017-12-20T01:07:45.899Z,100650
2017-12-20T01:09:52.506Z,100654
2017-12-20T01:12:02.488Z,100649
2017-12-20T01:14:14.181Z,100641
2017-12-20T01:16:23.849Z,100648
2017-12-20T01:18:30.453Z,100645
2017-12-20T01:20:38.127Z,100647
2017-12-20T01:22:44.682Z,100649
2017-12-20T01:24:51.302Z,100652
2017-12-20T01:26:57.407Z,100643
2017-12-20T01:29:03.102Z,100651
2017-12-20T01:31:09.924Z,100652
2017-12-20T01:33:19.334Z,100644
2017-12-20T01:35:26.164Z,100646
2017-12-20T01:37:34.921Z,100638
2017-12-20T01:39:42.147Z,100641
2017-12-20T01:41:49.281Z,100638
2017-12-20T01:43:57.295Z,100643
2017-12-20T01:46:03.355Z,100643
2017-12-20T01:48:09.135Z,100639
2017-12-20T01:50:14.747Z,100645
2017-12-20T01:52:22.442Z,100644
2017-12-20T01:54:28.612Z,100649
2017-12-20T01:56:34.601Z,100648
2017-12-20T01:58:40.248Z,100639
2017-12-20T02:00:47.678Z,100637
2017-12-20T02:02:55.853Z,100631
2017-12-20T02:05:03.281Z,100626
2017-12-20T02:07:09.479Z,100637
2017-12-20T02:09:16.342Z,100640
2017-12-20T02:11:24.852Z,100645
2017-12-20T02:13:31.475Z,100648
2017-12-20T02:15:37.934Z,100650
2017-12-20T02:17:43.392Z,100649
2017-12-20T02:19:51.866Z,100651
2017-12-20T02:22:02.189Z,100652
2017-12-20T02:24:09.339Z,100655
2017-12-20T02:26:16.343Z,100653
2017-12-20T02:28:21.943Z,100653
2017-12-20T02:30:31.906Z,100649
2017-12-20T02:32:37.639Z,100645
2017-12-20T02:34:44.505Z,100649
2017-12-20T02:36:50.149Z,100652
2017-12-20T02:38:55.684Z,100646
2017-12-20T02:41:02.216Z,100652
2017-12-20T02:43:09.148Z,100649
2017-12-20T02:45:15.390Z,100646
2017-12-20T02:47:23.364Z,100640
2017-12-20T02:49:29.636Z,100637
2017-12-20T02:51:35.802Z,100623
2017-12-20T02:53:42.473Z,100630
2017-12-20T02:55:48.157Z,100631
2017-12-20T02:57:55.639Z,100628
2017-12-20T03:00:02.579Z,100624
2017-12-20T03:02:11.337Z,100632
2017-12-20T03:04:16.702Z,100638
2017-12-20T03:06:22.451Z,100636
2017-12-20T03:08:29.946Z,100640
2017-12-20T03:10:36.017Z,100640
2017-12-20T03:12:41.795Z,100634
2017-12-20T03:14:48.360Z,100639
2017-12-20T03:16:53.915Z,100642
2017-12-20T03:19:00.053Z,100638
2017-12-20T03:21:05.972Z,100640
2017-12-20T03:23:11.690Z,100642
2017-12-20T03:25:17.107Z,100649
2017-12-20T03:27:22.676Z,100645
2017-12-20T03:29:28.288Z,100651
2017-12-20T03:31:34.394Z,100646
2017-12-20T03:33:39.842Z,100642
2017-12-20T03:35:45.063Z,100645
2017-12-20T03:37:52.483Z,100644
2017-12-20T03:39:59.365Z,100641
2017-12-20T03:42:05.151Z,100644
2017-12-20T03:44:11.736Z,100648
2017-12-20T03:46:17.069Z,100644
2017-12-20T03:48:24.173Z,100638
2017-12-20T03:50:31.086Z,100639
2017-12-20T03:52:36.871Z,100639
2017-12-20T03:54:43.609Z,100632
2017-12-20T03:56:49.013Z,100636
2017-12-20T03:58:56.130Z,100633
2017-12-20T04:01:03.239Z,100639
2017-12-20T04:03:09.942Z,100632
2017-12-20T04:05:15.727Z,100640
2017-12-20T04:07:21.572Z,100643
2017-12-20T04:09:29.678Z,100640
2017-12-20T04:11:42.767Z,100650
2017-12-20T04:13:49.350Z,100649
2017-12-20T04:15:55.706Z,100652
2017-12-20T04:18:01.880Z,100646
2017-12-20T04:20:07.405Z,100654
2017-12-20T04:22:13.087Z,100668
2017-12-20T04:24:18.715Z,100669
2017-12-20T04:26:24.080Z,100671
2017-12-20T04:28:29.619Z,100663
2017-12-20T04:30:35.389Z,100661
2017-12-20T04:32:41.214Z,100658
2017-12-20T04:34:47.718Z,100650
2017-12-20T04:36:53.521Z,100649
2017-12-20T04:38:59.252Z,100642
2017-12-20T04:41:06.037Z,100645
2017-12-20T04:43:11.796Z,100645
2017-12-20T04:45:17.273Z,100646
2017-12-20T04:47:23.006Z,100633
2017-12-20T04:49:28.566Z,100630
2017-12-20T04:51:33.781Z,100623
2017-12-20T04:53:40.045Z,100625
2017-12-20T04:55:45.638Z,100625
2017-12-20T04:57:51.477Z,100629
2017-12-20T04:59:57.556Z,100624
2017-12-20T05:02:03.905Z,100636
2017-12-20T05:04:10.749Z,100631
2017-12-20T05:06:17.129Z,100618
2017-12-20T05:08:24.210Z,100632
2017-12-20T05:10:30.882Z,100641
2017-12-20T05:12:37.295Z,100649
2017-12-20T05:14:43.756Z,100644
2017-12-20T05:16:49.832Z,100656
2017-12-20T05:18:56.336Z,100655
2017-12-20T05:21:02.074Z,100658
2017-12-20T05:23:09.517Z,100648
2017-12-20T05:25:16.137Z,100651
2017-12-20T05:27:23.235Z,100650
2017-12-20T05:29:30.206Z,100655
2017-12-20T05:31:37.853Z,100651
2017-12-20T05:33:43.938Z,100650
2017-12-20T05:35:50.471Z,100652
2017-12-20T05:37:56.136Z,100653
2017-12-20T05:40:02.669Z,100662
2017-12-20T05:42:10.190Z,100655
2017-12-20T05:44:16.902Z,100661
2017-12-20T05:46:23.722Z,100657
2017-12-20T05:48:30.833Z,100663
2017-12-20T05:50:37.371Z,100661
2017-12-20T05:52:45.089Z,100661
2017-12-20T05:54:53.104Z,100657
2017-12-20T05:57:00.243Z,100652
2017-12-20T05:59:07.037Z,100658
2017-12-20T06:01:12.782Z,100661
2017-12-20T06:03:18.844Z,100661
2017-12-20T06:05:25.519Z,100671
2017-12-20T06:07:32.872Z,100670
2017-12-20T06:09:39.504Z,100675
2017-12-20T06:11:45.438Z,100681
2017-12-20T06:13:51.660Z,100679
2017-12-20T06:16:00.790Z,100685
2017-12-20T06:18:14.026Z,100691
2017-12-20T06:20:21.132Z,100694
2017-12-20T06:22:29.161Z,100698
2017-12-20T06:24:35.558Z,100701
2017-12-20T06:26:41.647Z,100702
2017-12-20T06:28:47.396Z,100704
2017-12-20T06:30:54.383Z,100703
2017-12-20T06:33:00.357Z,100698
2017-12-20T06:35:07.807Z,100700
2017-12-20T06:37:13.642Z,100702
2017-12-20T06:39:19.490Z,100698
2017-12-20T06:41:26.818Z,100704
2017-12-20T06:43:32.401Z,100703
2017-12-20T06:45:38.294Z,100698
2017-12-20T06:47:44.103Z,100706
2017-12-20T06:49:51.788Z,100701
2017-12-20T06:51:57.277Z,100704
2017-12-20T06:54:04.829Z,100706
2017-12-20T06:56:10.679Z,100704
2017-12-20T06:58:16.419Z,100714
2017-12-20T07:00:22.352Z,100707
2017-12-20T07:02:28.225Z,100716
2017-12-20T07:04:34.754Z,100715
2017-12-20T07:06:41.717Z,100707
2017-12-20T07:08:49.191Z,100706
2017-12-20T07:10:57.575Z,100714
2017-12-20T07:13:05.761Z,100709
2017-12-20T07:15:11.574Z,100709
2017-12-20T07:17:17.209Z,100714
2017-12-20T07:19:24.116Z,100707
2017-12-20T07:21:32.450Z,100705
2017-12-20T07:23:38.217Z,100709
2017-12-20T07:25:43.775Z,100717
2017-12-20T07:27:49.400Z,100722
2017-12-20T07:29:56.689Z,100724
2017-12-20T07:32:02.218Z,100722
2017-12-20T07:34:08.238Z,100724
2017-12-20T07:36:14.096Z,100733
2017-12-20T07:38:20.721Z,100734
2017-12-20T07:40:27.702Z,100731
2017-12-20T07:42:33.636Z,100729
2017-12-20T07:44:39.663Z,100732
2017-12-20T07:46:48.921Z,100736
2017-12-20T07:48:55.644Z,100744
2017-12-20T07:51:01.808Z,100746
2017-12-20T07:54:32.143Z,100749
2017-12-20T07:56:41.064Z,100747
2017-12-20T07:58:51.370Z,100750
2017-12-20T08:00:57.317Z,100753
2017-12-20T08:03:03.829Z,100753
2017-12-20T08:05:10.078Z,100758
2017-12-20T08:07:16.201Z,100759
2017-12-20T08:09:22.123Z,100756
2017-12-20T08:11:28.600Z,100756
2017-12-20T08:13:34.395Z,100752
2017-12-20T08:15:41.129Z,100751
2017-12-20T08:17:47.275Z,100756
2017-12-20T08:19:54.465Z,100758
2017-12-20T08:22:00.202Z,100748
2017-12-20T08:24:05.646Z,100759
2017-12-20T08:26:12.282Z,100762
2017-12-20T08:28:19.624Z,100760
2017-12-20T08:30:25.128Z,100763
2017-12-20T08:32:30.691Z,100767
2017-12-20T08:34:37.317Z,100767
2017-12-20T08:36:42.690Z,100766
2017-12-20T08:38:50.798Z,100766
2017-12-20T08:40:57.621Z,100771
2017-12-20T08:43:05.728Z,100767
2017-12-20T08:45:12.511Z,100776
2017-12-20T08:47:23.975Z,100774
2017-12-20T08:49:31.211Z,100780
2017-12-20T08:51:40.534Z,100770
2017-12-20T08:53:48.218Z,100782
2017-12-20T08:55:57.439Z,100779
2017-12-20T08:58:08.191Z,100786
2017-12-20T09:00:15.166Z,100785
2017-12-20T09:02:22.291Z,100792
2017-12-20T09:04:30.500Z,100786
2017-12-20T09:06:37.020Z,100795
2017-12-20T09:08:43.468Z,100787
2017-12-20T09:10:49.221Z,100790
2017-12-20T09:12:56.895Z,100792
2017-12-20T09:15:03.572Z,100786
2017-12-20T09:17:12.925Z,100784
2017-12-20T09:19:19.495Z,100782
2017-12-20T09:21:27.317Z,100788
2017-12-20T09:23:33.338Z,100786
2017-12-20T09:25:41.532Z,100778
2017-12-20T09:27:47.943Z,100784
2017-12-20T09:29:54.655Z,100787
2017-12-20T09:32:01.780Z,100794
2017-12-20T09:34:11.820Z,100798
2017-12-20T09:36:18.409Z,100796
2017-12-20T09:38:25.534Z,100802
2017-12-20T09:40:31.227Z,100800
2017-12-20T09:42:38.132Z,100791
2017-12-20T09:44:44.324Z,100793
2017-12-20T09:46:50.366Z,100786
2017-12-20T09:48:58.243Z,100786
2017-12-20T09:51:06.832Z,100778
2017-12-20T09:53:16.926Z,100783
2017-12-20T09:55:25.748Z,100776
2017-12-20T09:57:35.206Z,100783
2017-12-20T09:59:42.809Z,100783
2017-12-20T10:01:49.470Z,100776
2017-12-20T10:03:58.336Z,100781
2017-12-20T10:06:05.793Z,100779
2017-12-20T10:08:13.878Z,100779
2017-12-20T10:10:20.345Z,100779
2017-12-20T10:12:26.804Z,100773
2017-12-20T10:14:33.247Z,100770
2017-12-20T10:16:40.003Z,100763
2017-12-20T10:18:47.782Z,100764
2017-12-20T10:20:54.707Z,100767
2017-12-20T10:23:01.972Z,100757
2017-12-20T10:25:11.032Z,100749
2017-12-20T10:27:17.145Z,100749
2017-12-20T10:29:24.859Z,100755
2017-12-20T10:31:32.470Z,100754
2017-12-20T10:33:41.351Z,100750
2017-12-20T10:35:49.421Z,100745
2017-12-20T10:37:56.355Z,100748
2017-12-20T10:40:02.730Z,100747
2017-12-20T10:42:11.064Z,100738
2017-12-20T10:44:26.564Z,100735
2017-12-20T10:46:33.383Z,100733
2017-12-20T10:48:44.171Z,100743
2017-12-20T10:50:52.882Z,100741
2017-12-20T10:52:59.556Z,100735
2017-12-20T10:55:07.844Z,100744
2017-12-20T10:57:20.864Z,100744
2017-12-20T10:59:27.400Z,100744
2017-12-20T11:01:34.318Z,100743
2017-12-20T11:03:40.432Z,100739
2017-12-20T11:05:49.665Z,100745
2017-12-20T11:07:59.383Z,100734
2017-12-20T11:10:08.622Z,100744
2017-12-20T11:12:16.122Z,100740
2017-12-20T11:14:26.094Z,100736
2017-12-20T11:16:39.928Z,100735
2017-12-20T11:18:48.074Z,100736
2017-12-20T11:20:55.082Z,100733
2017-12-20T11:23:07.349Z,100735
2017-12-20T11:25:17.011Z,100728
2017-12-20T11:27:23.968Z,100729
2017-12-20T11:29:31.639Z,100726
2017-12-20T11:31:39.799Z,100727
2017-12-20T11:33:46.872Z,100723
2017-12-20T11:35:58.339Z,100723
2017-12-20T11:38:05.319Z,100716
2017-12-20T11:40:12.823Z,100715
2017-12-20T11:42:20.736Z,100714
2017-12-20T11:44:34.114Z,100712
2017-12-20T11:46:41.447Z,100706
2017-12-20T11:48:47.800Z,100700
2017-12-20T11:50:55.738Z,100694
2017-12-20T11:53:05.881Z,100696
2017-12-20T11:55:13.914Z,100694
2017-12-20T11:57:26.086Z,100692
2017-12-20T11:59:48.556Z,100690
2017-12-20T12:01:58.421Z,100699
2017-12-20T12:04:05.923Z,100697
2017-12-20T12:06:13.434Z,100696
2017-12-20T12:08:24.977Z,100691
2017-12-20T12:10:32.823Z,100693
2017-12-20T12:12:43.822Z,100694
2017-12-20T12:14:51.218Z,100695
2017-12-20T12:16:57.331Z,100696
2017-12-20T12:19:03.410Z,100694
2017-12-20T12:21:12.977Z,100692
2017-12-20T12:23:21.391Z,100703
2017-12-20T12:25:31.937Z,100705
2017-12-20T12:27:40.401Z,100710
2017-12-20T12:29:49.934Z,100710
2017-12-20T12:31:59.848Z,100720
2017-12-20T12:34:09.607Z,100712
2017-12-20T12:36:15.693Z,100712
2017-12-20T12:38:21.842Z,100709
2017-12-20T12:40:28.151Z,100701
2017-12-20T12:42:36.274Z,100705
2017-12-20T12:44:46.078Z,100692
2017-12-20T12:46:58.113Z,100694
2017-12-20T12:49:07.499Z,100699
2017-12-20T12:51:15.400Z,100693
2017-12-20T12:53:25.423Z,100696
2017-12-20T12:55:34.255Z,100695
2017-12-20T12:57:40.045Z,100700
2017-12-20T12:59:46.062Z,100702
2017-12-20T13:01:56.828Z,100698
2017-12-20T13:04:06.075Z,100705
2017-12-20T13:06:16.045Z,100699
2017-12-20T13:08:24.660Z,100697
2017-12-20T13:10:33.879Z,100696
2017-12-20T13:12:41.987Z,100694
2017-12-20T13:14:50.216Z,100699
2017-12-20T13:17:02.026Z,100699
2017-12-20T13:19:11.293Z,100695
2017-12-20T13:21:20.005Z,100693
2017-12-20T13:23:29.584Z,100693
2017-12-20T13:25:44.980Z,100692
2017-12-20T13:27:55.516Z,100704
2017-12-20T13:30:04.049Z,100700
2017-12-20T13:32:15.798Z,100695
2017-12-20T13:34:27.082Z,100695
2017-12-20T13:36:40.383Z,100699
2017-12-20T13:38:50.165Z,100697
2017-12-20T13:41:02.402Z,100701
2017-12-20T13:43:10.827Z,100706
2017-12-20T13:45:27.059Z,100705
2017-12-20T13:47:36.435Z,100706
2017-12-20T13:49:53.521Z,100710
2017-12-20T13:52:08.031Z,100710
2017-12-20T13:54:15.937Z,100709
2017-12-20T13:56:28.574Z,100714
2017-12-20T13:58:38.341Z,100707
2017-12-20T14:00:47.639Z,100696
2017-12-20T14:02:57.332Z,100702
2017-12-20T14:05:08.794Z,100701
2017-12-20T14:07:21.606Z,100701
2017-12-20T14:09:35.394Z,100706
2017-12-20T14:11:43.522Z,100705
2017-12-20T14:13:52.147Z,100703
2017-12-20T14:15:58.992Z,100700
2017-12-20T14:18:09.894Z,100697
2017-12-20T14:20:16.658Z,100704
2017-12-20T14:22:24.724Z,100705
2017-12-20T14:24:33.840Z,100716
2017-12-20T14:26:42.538Z,100706
2017-12-20T14:28:48.949Z,100709
2017-12-20T14:30:57.497Z,100714
2017-12-20T14:33:06.109Z,100722
2017-12-20T14:35:15.646Z,100720
2017-12-20T14:37:25.400Z,100712
2017-12-20T14:39:35.770Z,100725
2017-12-20T14:41:50.515Z,100721
2017-12-20T14:44:00.173Z,100724
2017-12-20T14:46:10.153Z,100727
2017-12-20T14:48:25.109Z,100725
2017-12-20T14:50:35.015Z,100717
2017-12-20T14:52:42.529Z,100718
2017-12-20T14:54:55.950Z,100715
2017-12-20T14:57:09.131Z,100723
2017-12-20T14:59:28.321Z,100722
2017-12-20T15:01:44.364Z,100722
2017-12-20T15:03:52.137Z,100725
2017-12-20T15:06:06.285Z,100717
2017-12-20T15:08:16.761Z,100723
2017-12-20T15:10:24.624Z,100728
2017-12-20T15:12:31.247Z,100727
2017-12-20T15:14:40.651Z,100724
2017-12-20T15:16:55.309Z,100725
2017-12-20T15:19:01.572Z,100722
2017-12-20T15:21:20.119Z,100728
2017-12-20T15:23:31.468Z,100723
2017-12-20T15:25:42.164Z,100725
2017-12-20T15:27:54.390Z,100735
2017-12-20T15:30:04.140Z,100733
2017-12-20T15:32:18.790Z,100735
2017-12-20T15:34:33.068Z,100739
2017-12-20T15:36:46.623Z,100742
2017-12-20T15:39:03.015Z,100738
2017-12-20T15:41:11.445Z,100743
2017-12-20T15:43:19.274Z,100746
2017-12-20T15:45:30.308Z,100753
2017-12-20T15:47:42.455Z,100746
2017-12-20T15:49:55.590Z,100755
2017-12-20T15:52:13.795Z,100754
2017-12-20T15:54:27.331Z,100754
2017-12-20T15:56:54.332Z,100756
2017-12-20T15:59:09.613Z,100755
2017-12-20T16:01:25.723Z,100758
2017-12-20T16:03:42.878Z,100752
2017-12-20T16:05:56.883Z,100756
2017-12-20T16:08:06.501Z,100758
2017-12-20T16:10:27.805Z,100754
2017-12-20T16:12:38.674Z,100744
2017-12-20T16:14:52.613Z,100753
2017-12-20T16:17:05.345Z,100742
2017-12-20T16:19:19.599Z,100749
2017-12-20T16:21:31.709Z,100748
2017-12-20T16:23:42.728Z,100752
2017-12-20T16:25:55.135Z,100756
2017-12-20T16:28:07.936Z,100751
2017-12-20T16:30:23.717Z,100748
2017-12-20T16:32:34.165Z,100745
2017-12-20T16:34:49.274Z,100746
2017-12-20T16:36:59.083Z,100745
2017-12-20T16:39:12.043Z,100747
2017-12-20T16:41:24.892Z,100749
2017-12-20T16:43:37.932Z,100746
2017-12-20T16:45:46.503Z,100747
2017-12-20T16:47:56.403Z,100758
2017-12-20T16:50:10.968Z,100753
2017-12-20T16:52:18.930Z,100746
2017-12-20T16:54:34.674Z,100747
2017-12-20T16:56:44.805Z,100748
2017-12-20T16:59:01.864Z,100747
2017-12-20T17:01:19.315Z,100750
2017-12-20T17:03:41.495Z,100745
2017-12-20T17:05:56.290Z,100749
2017-12-20T17:08:06.954Z,100747
2017-12-20T17:10:25.269Z,100739
2017-12-20T17:12:46.890Z,100727
2017-12-20T17:14:56.897Z,100723
2017-12-20T17:17:10.561Z,100719
2017-12-20T17:19:22.047Z,100719
2017-12-20T17:21:41.919Z,100721
2017-12-20T17:23:51.454Z,100728
2017-12-20T17:28:17.662Z,100731
2017-12-20T17:30:32.536Z,100738
2017-12-20T17:32:44.516Z,100730
2017-12-20T17:34:53.128Z,100730
2017-12-20T17:37:02.556Z,100725
2017-12-20T17:39:12.530Z,100727
2017-12-20T17:41:25.029Z,100725
2017-12-20T17:43:35.832Z,100728
2017-12-20T17:45:44.767Z,100730
2017-12-20T17:47:52.352Z,100734
2017-12-20T17:50:06.266Z,100733
2017-12-20T17:52:20.737Z,100735
2017-12-20T17:54:31.468Z,100747
2017-12-20T17:56:39.561Z,100740
2017-12-20T17:58:54.349Z,100737
2017-12-20T18:01:10.104Z,100738
2017-12-20T18:03:24.124Z,100744
2017-12-20T18:05:33.684Z,100745
2017-12-20T18:07:47.304Z,100746
2017-12-20T18:12:17.135Z,100744
2017-12-20T18:14:28.349Z,100745
2017-12-20T18:16:38.244Z,100747
2017-12-20T18:18:46.767Z,100747
2017-12-20T18:20:58.863Z,100753
2017-12-20T18:23:07.647Z,100741
2017-12-20T18:25:16.762Z,100734
2017-12-20T18:27:25.784Z,100721
2017-12-20T18:29:34.457Z,100727
2017-12-20T18:31:43.286Z,100737
2017-12-20T18:33:49.609Z,100733
2017-12-20T18:35:55.491Z,100736
2017-12-20T18:38:04.330Z,100741
2017-12-20T18:40:19.595Z,100750
2017-12-20T18:42:27.437Z,100753
2017-12-20T18:44:36.413Z,100757
2017-12-20T18:46:45.882Z,100766
2017-12-20T18:48:56.429Z,100765
2017-12-20T18:51:09.590Z,100764
2017-12-20T18:53:20.778Z,100774
2017-12-20T18:55:32.130Z,100778
2017-12-20T18:57:47.746Z,100777
2017-12-20T19:00:06.842Z,100781
2017-12-20T19:02:20.209Z,100776
2017-12-20T19:04:30.337Z,100774
2017-12-20T19:06:47.193Z,100772
2017-12-20T19:09:00.767Z,100777
2017-12-20T19:11:20.494Z,100776
2017-12-20T19:13:31.585Z,100769
2017-12-20T19:18:01.882Z,100771
2017-12-20T19:20:21.372Z,100768
2017-12-20T19:22:31.463Z,100769
2017-12-20T19:24:42.321Z,100762
2017-12-20T19:26:51.018Z,100755
2017-12-20T19:29:08.811Z,100752
2017-12-20T19:31:22.160Z,100758
2017-12-20T19:33:32.330Z,100751
2017-12-20T19:35:46.886Z,100751
2017-12-20T19:37:58.682Z,100753
2017-12-20T19:40:11.494Z,100747
2017-12-20T19:42:20.407Z,100745
2017-12-20T19:44:32.026Z,100744
2017-12-20T19:46:46.677Z,100744
2017-12-20T19:48:55.349Z,100748
2017-12-20T19:51:03.556Z,100746
2017-12-20T19:53:13.241Z,100746
2017-12-20T19:55:36.332Z,100752
2017-12-20T19:57:48.809Z,100751
2017-12-20T19:59:58.175Z,100754
2017-12-20T20:02:21.449Z,100754
2017-12-20T20:04:41.972Z,100744
2017-12-20T20:06:57.758Z,100749
2017-12-20T20:11:32.072Z,100737
2017-12-20T20:13:48.852Z,100743
2017-12-20T20:16:12.480Z,100731
2017-12-20T20:18:26.789Z,100723
2017-12-20T20:20:46.535Z,100722
2017-12-20T20:22:59.672Z,100720
2017-12-20T20:25:19.210Z,100712
2017-12-20T20:27:38.009Z,100716
2017-12-20T20:32:14.173Z,100711
2017-12-20T20:34:25.807Z,100721
2017-12-20T20:36:44.106Z,100721
2017-12-20T20:38:57.224Z,100730
2017-12-20T20:41:09.805Z,100736
2017-12-20T20:43:23.689Z,100733
2017-12-20T20:45:38.408Z,100731
2017-12-20T20:47:51.671Z,100731
2017-12-20T20:50:01.700Z,100724
2017-12-20T20:52:09.388Z,100729
2017-12-20T20:54:22.831Z,100739
2017-12-20T20:56:31.107Z,100742
2017-12-20T20:58:39.015Z,100734
2017-12-20T21:00:52.331Z,100742
2017-12-20T21:03:01.914Z,100745
2017-12-20T21:05:12.214Z,100736
2017-12-20T21:07:23.983Z,100735
2017-12-20T21:09:32.916Z,100734
2017-12-20T21:11:41.312Z,100731
2017-12-20T21:13:54.038Z,100734
2017-12-20T21:16:03.008Z,100731
2017-12-20T21:18:13.510Z,100735
2017-12-20T21:20:23.495Z,100732
2017-12-20T21:22:33.057Z,100742
2017-12-20T21:24:39.713Z,100737
2017-12-20T21:29:15.710Z,100748
2017-12-20T21:31:24.043Z,100747
2017-12-20T21:33:34.477Z,100745
2017-12-20T21:35:43.512Z,100745
2017-12-20T21:37:53.973Z,100753
2017-12-20T21:40:06.854Z,100748
2017-12-20T21:42:15.869Z,100747
2017-12-20T21:44:29.126Z,100739
2017-12-20T21:46:41.536Z,100745
2017-12-20T21:48:51.230Z,100751
2017-12-20T21:51:04.570Z,100749
2017-12-20T21:53:19.226Z,100747
2017-12-20T21:55:31.764Z,100747
2017-12-20T21:57:39.588Z,100750
2017-12-20T22:00:04.644Z,100753
2017-12-20T22:02:17.048Z,100753
2017-12-20T22:04:31.302Z,100751
2017-12-20T22:06:38.975Z,100746
2017-12-20T22:08:49.920Z,100735
2017-12-20T22:11:00.272Z,100737
2017-12-20T22:13:11.558Z,100745
2017-12-20T22:15:18.255Z,100740
2017-12-20T22:17:25.463Z,100741
2017-12-20T22:19:38.995Z,100747
2017-12-20T22:21:50.002Z,100745
2017-12-20T22:23:56.432Z,100745
2017-12-20T22:26:08.040Z,100746
2017-12-20T22:28:17.537Z,100748
2017-12-20T22:30:24.917Z,100760
2017-12-20T22:32:37.301Z,100755
2017-12-20T22:34:47.186Z,100760
2017-12-20T22:36:54.964Z,100752
2017-12-20T22:39:06.939Z,100753
2017-12-20T22:41:14.240Z,100753
2017-12-20T22:43:24.680Z,100759
2017-12-20T22:45:36.128Z,100739
2017-12-20T22:47:48.261Z,100729
2017-12-20T22:49:57.237Z,100725
2017-12-20T22:52:04.903Z,100726
2017-12-20T22:54:16.196Z,100731
2017-12-20T22:56:22.426Z,100743
2017-12-20T22:58:32.192Z,100737
2017-12-20T23:00:44.960Z,100743
2017-12-20T23:02:58.454Z,100752
2017-12-20T23:05:10.436Z,100751
2017-12-20T23:07:21.328Z,100743
2017-12-20T23:09:28.800Z,100752
2017-12-20T23:11:39.042Z,100747
2017-12-20T23:13:45.337Z,100744
2017-12-20T23:15:52.250Z,100740
2017-12-20T23:17:59.354Z,100722
2017-12-20T23:20:12.923Z,100722
2017-12-20T23:22:19.509Z,100720
2017-12-20T23:24:28.563Z,100726
2017-12-20T23:26:35.513Z,100718
2017-12-20T23:28:41.557Z,100709
2017-12-20T23:30:48.433Z,100703
2017-12-20T23:32:55.658Z,100702
2017-12-20T23:35:09.553Z,100688
2017-12-20T23:37:18.096Z,100694
2017-12-20T23:39:23.950Z,100678
2017-12-20T23:41:31.760Z,100678
2017-12-20T23:43:44.515Z,100677
2017-12-20T23:45:53.773Z,100692
2017-12-20T23:48:03.609Z,100681
2017-12-20T23:50:13.891Z,100680
2017-12-20T23:52:21.879Z,100679
2017-12-20T23:54:28.276Z,100694
2017-12-20T23:56:35.550Z,100706
2017-12-20T23:58:41.377Z,100700
